Terminal Aerodrome Forecast
Issued by NWS

Home | Current Version | Previous Version | Text Only | Print | Product List | Glossary On
Versions: 1 2 3 4 5 6 7 8 9 10 11 12 13 14 15 16 17 18 19
000
FTUS46 KSGX 211600 AAA
TAFONT
TAF AMD
KONT 211611Z 2116/2218 VRB04KT P6SM OVC015
     FM211730 VRB04KT P6SM SCT020
     FM212100 26011KT P6SM SKC
     FM220400 VRB04KT P6SM SKC
     FM221200 VRB03KT P6SM BKN010
     FM221530 VRB05KT P6SM SCT012=

USA.gov is the U.S. government's official web portal to all federal, state and local government web resources and services.